createdAt,value
2022-09-15T00:01:11.736Z,19.30
2022-09-15T00:03:39.885Z,22.60
2022-09-15T00:06:08.363Z,19.30
2022-09-15T00:08:35.642Z,18.80
2022-09-15T00:11:10.127Z,19.30
2022-09-15T00:13:39.826Z,19.80
2022-09-15T00:16:08.650Z,17.50
2022-09-15T00:18:38.053Z,18.00
2022-09-15T00:21:12.374Z,20.90
2022-09-15T00:23:39.577Z,20.60
2022-09-15T00:26:10.540Z,18.90
2022-09-15T00:28:38.544Z,18.50
2022-09-15T00:31:09.773Z,20.30
2022-09-15T00:33:37.301Z,18.90
2022-09-15T00:36:08.613Z,17.90
2022-09-15T00:38:36.979Z,19.90
2022-09-15T00:41:06.256Z,22.50
2022-09-15T00:43:52.706Z,20.20
2022-09-15T00:46:28.715Z,23.10
2022-09-15T00:49:07.316Z,21.90
2022-09-15T00:51:49.221Z,22.20
2022-09-15T00:54:26.923Z,21.60
2022-09-15T00:56:57.795Z,24.70
2022-09-15T00:59:30.249Z,20.00
2022-09-15T01:02:12.145Z,22.80
2022-09-15T01:04:39.582Z,22.70
2022-09-15T01:07:11.215Z,24.50
2022-09-15T01:09:50.878Z,23.40
2022-09-15T01:12:19.106Z,22.80
2022-09-15T01:14:45.917Z,24.30
2022-09-15T01:17:34.929Z,25.70
2022-09-15T01:20:26.476Z,24.50
2022-09-15T01:23:44.822Z,24.00
2022-09-15T01:26:58.945Z,23.90
2022-09-15T01:30:10.113Z,20.00
2022-09-15T01:33:08.341Z,20.80
2022-09-15T01:36:16.156Z,24.40
2022-09-15T01:38:52.990Z,25.10
2022-09-15T01:42:16.633Z,26.90
2022-09-15T01:44:52.170Z,19.80
2022-09-15T01:47:22.921Z,18.10
2022-09-15T01:50:01.094Z,20.70
2022-09-15T01:52:29.515Z,18.80
2022-09-15T01:55:04.532Z,20.80
2022-09-15T01:57:33.295Z,21.80
2022-09-15T02:00:00.902Z,23.50
2022-09-15T02:02:49.148Z,22.80
2022-09-15T02:05:43.613Z,23.10
2022-09-15T02:08:27.786Z,24.80
2022-09-15T02:11:17.265Z,23.30
2022-09-15T02:14:17.384Z,25.40
2022-09-15T02:16:49.990Z,23.90
2022-09-15T02:19:31.330Z,24.30
2022-09-15T02:22:22.805Z,27.90
2022-09-15T02:25:08.208Z,26.50
2022-09-15T02:27:44.202Z,24.70
2022-09-15T02:30:15.691Z,26.00
2022-09-15T02:32:59.291Z,28.50
2022-09-15T02:35:29.893Z,27.70
2022-09-15T02:37:58.509Z,28.40
2022-09-15T02:40:25.675Z,30.60
2022-09-15T02:42:57.002Z,28.10
2022-09-15T02:45:25.277Z,28.00
2022-09-15T02:47:52.145Z,28.00
2022-09-15T02:50:20.711Z,23.70
2022-09-15T02:52:47.432Z,24.00
2022-09-15T02:55:14.219Z,19.40
2022-09-15T02:57:40.997Z,25.00
2022-09-15T03:00:16.848Z,31.80
2022-09-15T03:02:50.030Z,29.30
2022-09-15T03:05:20.866Z,25.50
2022-09-15T03:07:48.087Z,27.80
2022-09-15T03:10:15.336Z,33.80
2022-09-15T03:12:49.625Z,32.00
2022-09-15T03:15:21.054Z,31.00
2022-09-15T03:17:48.920Z,27.90
2022-09-15T03:20:20.798Z,25.00
2022-09-15T03:22:49.553Z,26.90
2022-09-15T03:25:18.191Z,28.20
2022-09-15T03:27:45.304Z,26.30
2022-09-15T03:30:14.002Z,29.50
2022-09-15T03:32:40.999Z,27.90
2022-09-15T03:35:08.873Z,29.80
2022-09-15T03:37:35.587Z,32.70
2022-09-15T03:40:05.620Z,33.80
2022-09-15T03:42:32.583Z,35.00
2022-09-15T03:44:59.399Z,30.30
2022-09-15T03:47:26.083Z,36.90
2022-09-15T03:49:53.085Z,33.70
2022-09-15T03:52:19.808Z,22.80
2022-09-15T03:54:49.417Z,27.40
2022-09-15T03:57:16.177Z,25.80
2022-09-15T03:59:43.027Z,26.20
2022-09-15T04:02:09.847Z,29.20
2022-09-15T04:04:36.990Z,28.30
2022-09-15T04:07:03.814Z,25.20
2022-09-15T04:09:31.471Z,30.60
2022-09-15T04:11:58.472Z,30.60
2022-09-15T04:14:25.179Z,30.90
2022-09-15T04:16:52.382Z,27.10
2022-09-15T04:19:19.162Z,26.30
2022-09-15T04:21:47.427Z,26.30
2022-09-15T04:24:14.299Z,33.60
2022-09-15T04:26:41.157Z,28.30
2022-09-15T04:29:15.191Z,33.80
2022-09-15T04:31:42.640Z,30.00
2022-09-15T04:34:09.446Z,36.70
2022-09-15T04:36:36.346Z,33.70
2022-09-15T04:39:04.067Z,27.50
2022-09-15T04:41:30.833Z,27.30
2022-09-15T04:43:58.508Z,28.40
2022-09-15T04:46:26.119Z,27.80
2022-09-15T04:48:52.943Z,28.90
2022-09-15T04:51:22.444Z,32.60
2022-09-15T04:53:50.713Z,23.10
2022-09-15T04:56:22.393Z,28.30
2022-09-15T04:59:02.443Z,21.10
2022-09-15T05:01:35.542Z,28.10
2022-09-15T05:04:04.612Z,30.80
2022-09-15T05:06:32.530Z,25.90
2022-09-15T05:09:01.096Z,28.20
2022-09-15T05:11:28.607Z,26.80
2022-09-15T05:13:55.394Z,25.40
2022-09-15T05:16:25.974Z,24.30
2022-09-15T05:18:56.627Z,25.10
2022-09-15T05:21:26.341Z,26.10
2022-09-15T05:23:55.730Z,28.20
2022-09-15T05:26:27.141Z,28.00
2022-09-15T05:28:55.344Z,29.10
2022-09-15T05:31:30.888Z,25.90
2022-09-15T05:34:05.626Z,25.90
2022-09-15T05:36:33.118Z,26.10
2022-09-15T05:39:00.537Z,27.00
2022-09-15T05:41:29.294Z,28.50
2022-09-15T05:43:58.255Z,27.00
2022-09-15T05:46:26.966Z,23.60
2022-09-15T05:48:57.868Z,24.50
2022-09-15T05:51:25.801Z,26.30
2022-09-15T05:53:52.827Z,29.80
2022-09-15T05:56:20.401Z,27.10
2022-09-15T05:58:49.499Z,24.50
2022-09-15T06:01:29.140Z,22.70
2022-09-15T06:03:58.264Z,22.90
2022-09-15T06:06:26.733Z,22.70
2022-09-15T06:08:58.860Z,20.70
2022-09-15T06:11:33.686Z,20.70
2022-09-15T06:14:06.174Z,20.90
2022-09-15T06:16:35.769Z,22.90
2022-09-15T06:19:03.593Z,21.70
2022-09-15T06:21:32.819Z,23.50
2022-09-15T06:24:03.624Z,24.30
2022-09-15T06:26:30.825Z,21.90
2022-09-15T06:29:01.176Z,25.10
2022-09-15T06:31:31.773Z,22.50
2022-09-15T06:33:59.473Z,21.00
2022-09-15T06:36:29.175Z,25.40
2022-09-15T06:38:57.092Z,17.40
2022-09-15T06:41:24.398Z,20.10
2022-09-15T06:43:51.519Z,19.30
2022-09-15T06:46:24.178Z,15.10
2022-09-15T06:48:52.063Z,14.90
2022-09-15T06:51:24.102Z,17.70
2022-09-15T06:53:53.301Z,13.30
2022-09-15T06:56:23.432Z,16.50
2022-09-15T06:58:50.936Z,12.50
2022-09-15T07:01:28.666Z,15.00
2022-09-15T07:03:58.508Z,15.20
2022-09-15T07:06:29.798Z,12.60
2022-09-15T07:08:58.500Z,13.40
2022-09-15T07:11:26.282Z,12.70
2022-09-15T07:13:53.506Z,15.00
2022-09-15T07:16:22.583Z,13.00
2022-09-15T07:18:49.936Z,14.50
2022-09-15T07:21:20.207Z,14.40
2022-09-15T07:23:49.385Z,14.70
2022-09-15T07:26:21.987Z,12.10
2022-09-15T07:28:52.560Z,10.20
2022-09-15T07:31:23.692Z,12.20
2022-09-15T07:33:50.575Z,10.00
2022-09-15T07:36:17.993Z,12.70
2022-09-15T07:38:50.854Z,11.50
2022-09-15T07:41:28.087Z,11.70
2022-09-15T07:43:58.426Z,11.80
2022-09-15T07:46:27.565Z,10.40
2022-09-15T07:48:58.166Z,9.00
2022-09-15T07:51:26.118Z,7.60
2022-09-15T07:53:53.874Z,7.90
2022-09-15T07:56:22.161Z,8.20
2022-09-15T07:58:50.148Z,7.80
2022-09-15T08:01:20.473Z,8.10
2022-09-15T08:03:50.744Z,10.30
2022-09-15T08:06:26.736Z,6.90
2022-09-15T08:09:00.147Z,8.50
2022-09-15T08:11:29.518Z,7.30
2022-09-15T08:13:56.318Z,5.40
2022-09-15T08:16:24.674Z,5.70
2022-09-15T08:18:55.418Z,4.80
2022-09-15T08:21:23.508Z,5.20
2022-09-15T08:23:54.207Z,4.10
2022-09-15T08:26:21.135Z,3.90
2022-09-15T08:28:49.255Z,6.70
2022-09-15T08:31:17.020Z,5.90
2022-09-15T08:33:52.513Z,3.70
2022-09-15T08:36:19.883Z,5.40
2022-09-15T08:38:47.829Z,4.20
2022-09-15T08:41:30.392Z,6.80
2022-09-15T08:44:40.663Z,7.20
2022-09-15T08:47:31.757Z,7.80
2022-09-15T08:50:35.942Z,7.10
2022-09-15T08:53:15.605Z,4.60
2022-09-15T08:55:55.415Z,3.80
2022-09-15T08:58:27.252Z,3.60
2022-09-15T09:01:06.085Z,6.00
2022-09-15T09:03:58.109Z,4.60
2022-09-15T09:06:58.715Z,3.70
2022-09-15T09:10:10.117Z,4.20
2022-09-15T09:13:00.832Z,4.60
2022-09-15T09:16:18.893Z,5.50
2022-09-15T09:18:54.467Z,4.80
2022-09-15T09:21:33.847Z,4.50
2022-09-15T09:24:19.477Z,7.00
2022-09-15T09:26:54.525Z,6.00
2022-09-15T09:29:52.233Z,5.50
2022-09-15T09:32:27.359Z,5.20
2022-09-15T09:35:16.075Z,4.70
2022-09-15T09:37:43.894Z,6.40
2022-09-15T09:40:17.465Z,4.80
2022-09-15T09:42:45.558Z,4.70
2022-09-15T09:45:19.114Z,4.20
2022-09-15T09:47:46.691Z,3.20
2022-09-15T09:50:39.513Z,5.10
2022-09-15T09:53:28.837Z,3.80
2022-09-15T09:56:26.772Z,6.00
2022-09-15T09:58:55.312Z,4.60
2022-09-15T10:01:26.136Z,2.90
2022-09-15T10:04:19.500Z,4.60
2022-09-15T10:06:48.261Z,4.40
2022-09-15T10:09:19.910Z,4.30
2022-09-15T10:12:07.492Z,4.00
2022-09-15T10:14:41.948Z,5.80
2022-09-15T10:17:27.455Z,4.30
2022-09-15T10:19:58.799Z,3.40
2022-09-15T10:22:36.529Z,2.70
2022-09-15T10:25:21.586Z,4.60
2022-09-15T10:28:16.491Z,3.00
2022-09-15T10:31:04.110Z,5.00
2022-09-15T10:33:36.478Z,3.60
2022-09-15T10:36:07.568Z,4.30
2022-09-15T10:38:42.362Z,8.00
2022-09-15T10:41:30.199Z,4.40
2022-09-15T10:44:18.687Z,4.10
2022-09-15T10:47:24.340Z,3.80
2022-09-15T10:50:22.323Z,3.90
2022-09-15T10:53:33.839Z,3.20
2022-09-15T10:56:19.225Z,4.20
2022-09-15T10:59:37.840Z,3.50
2022-09-15T11:02:14.607Z,3.10
2022-09-15T11:05:04.730Z,3.10
2022-09-15T11:07:57.139Z,3.80
2022-09-15T11:11:07.983Z,4.00
2022-09-15T11:14:17.534Z,6.90
2022-09-15T11:17:23.100Z,4.90
2022-09-15T11:20:14.745Z,3.90
2022-09-15T11:23:02.648Z,5.30
2022-09-15T11:25:39.368Z,3.70
2022-09-15T11:28:23.860Z,4.30
2022-09-15T11:31:18.314Z,4.20
2022-09-15T11:34:24.925Z,11.70
2022-09-15T11:37:13.159Z,6.50
2022-09-15T11:40:16.027Z,5.20
2022-09-15T11:43:39.172Z,3.90
2022-09-15T11:46:15.779Z,4.50
2022-09-15T11:48:53.298Z,5.20
2022-09-15T11:51:25.833Z,4.60
2022-09-15T11:54:13.646Z,6.80
2022-09-15T11:56:46.598Z,6.10
2022-09-15T11:59:50.705Z,2.70
2022-09-15T12:02:38.952Z,5.00
2022-09-15T12:05:11.833Z,4.30
2022-09-15T12:07:53.450Z,3.80
2022-09-15T12:10:34.136Z,4.30
2022-09-15T12:13:02.468Z,5.20
2022-09-15T12:15:30.000Z,6.50
2022-09-15T12:18:40.818Z,4.40
2022-09-15T12:21:34.117Z,7.20
2022-09-15T12:24:16.821Z,4.20
2022-09-15T12:26:46.693Z,4.00
2022-09-15T12:29:41.873Z,4.40
2022-09-15T12:32:29.099Z,4.10
2022-09-15T12:34:57.718Z,3.40
2022-09-15T12:37:32.276Z,3.80
2022-09-15T12:39:59.348Z,4.30
2022-09-15T12:42:31.559Z,3.90
2022-09-15T12:45:20.142Z,4.10
2022-09-15T12:48:21.781Z,5.70
2022-09-15T12:51:04.948Z,4.80
2022-09-15T12:53:46.390Z,4.90
2022-09-15T12:56:26.507Z,6.10
2022-09-15T12:58:55.207Z,4.60
2022-09-15T13:01:25.276Z,4.70
2022-09-15T13:03:55.450Z,6.00
2022-09-15T13:06:27.010Z,6.30
2022-09-15T13:09:06.050Z,4.90
2022-09-15T13:11:47.691Z,5.20
2022-09-15T13:14:34.595Z,5.30
2022-09-15T13:17:19.887Z,4.80
2022-09-15T13:19:51.842Z,4.80
2022-09-15T13:22:30.279Z,4.60
2022-09-15T13:25:15.845Z,4.80
2022-09-15T13:27:48.107Z,3.90
2022-09-15T13:31:11.999Z,3.90
2022-09-15T13:40:49.459Z,4.50
2022-09-15T13:44:13.965Z,4.20
2022-09-15T13:46:53.612Z,4.00
2022-09-15T13:49:55.862Z,4.90
2022-09-15T13:52:56.848Z,4.30
2022-09-15T13:55:33.684Z,4.30
2022-09-15T14:00:55.549Z,2.70
2022-09-15T14:03:52.017Z,3.00
2022-09-15T14:06:25.031Z,4.80
2022-09-15T14:09:01.784Z,2.70
2022-09-15T14:11:33.003Z,5.40
2022-09-15T14:14:03.482Z,3.90
2022-09-15T14:16:39.302Z,3.00
2022-09-15T14:19:34.073Z,1.80
2022-09-15T14:22:18.519Z,2.70
2022-09-15T14:24:45.648Z,3.20
2022-09-15T14:27:22.285Z,6.30
2022-09-15T14:29:55.343Z,3.50
2022-09-15T14:32:22.354Z,3.10
2022-09-15T14:34:51.046Z,4.20
2022-09-15T14:37:24.109Z,3.20
2022-09-15T14:39:57.409Z,3.50
2022-09-15T14:42:41.073Z,4.40
2022-09-15T14:48:18.126Z,3.40
2022-09-15T14:51:04.917Z,3.90
2022-09-15T14:53:36.419Z,3.40
2022-09-15T14:56:11.613Z,4.00
2022-09-15T14:58:59.701Z,3.10
2022-09-15T15:01:38.813Z,4.90
2022-09-15T15:04:26.887Z,3.70
2022-09-15T15:07:23.969Z,3.60
2022-09-15T15:10:00.686Z,4.70
2022-09-15T15:12:39.754Z,5.20
2022-09-15T15:15:11.003Z,4.00
2022-09-15T15:17:55.462Z,3.80
2022-09-15T15:20:27.206Z,2.40
2022-09-15T15:23:27.929Z,3.90
2022-09-15T15:26:44.857Z,3.50
2022-09-15T15:29:48.249Z,4.70
2022-09-15T15:32:21.754Z,4.90
2022-09-15T15:35:01.905Z,3.70
2022-09-15T15:37:32.540Z,5.50
2022-09-15T15:40:06.619Z,2.90
2022-09-15T15:42:35.502Z,2.40
2022-09-15T15:45:34.091Z,3.00
2022-09-15T15:48:04.561Z,5.00
2022-09-15T15:50:34.594Z,5.00
2022-09-15T15:53:02.644Z,4.20
2022-09-15T15:55:44.096Z,5.40
2022-09-15T15:58:13.358Z,3.80
2022-09-15T16:00:54.732Z,7.60
2022-09-15T16:03:24.103Z,3.00
2022-09-15T16:05:57.302Z,5.80
2022-09-15T16:08:31.260Z,4.10
2022-09-15T16:11:01.021Z,4.30
2022-09-15T16:13:29.133Z,6.90
2022-09-15T16:15:58.443Z,3.90
2022-09-15T16:18:25.299Z,3.60
2022-09-15T16:20:54.005Z,9.40
2022-09-15T16:23:23.661Z,4.20
2022-09-15T16:26:07.369Z,5.20
2022-09-15T16:28:34.100Z,4.70
2022-09-15T16:31:00.884Z,3.20
2022-09-15T16:33:27.948Z,4.50
2022-09-15T16:36:06.459Z,3.70
2022-09-15T16:38:37.662Z,4.00
2022-09-15T16:41:13.464Z,5.40
2022-09-15T16:43:40.250Z,5.30
2022-09-15T16:46:09.751Z,4.70
2022-09-15T16:48:38.513Z,5.50
2022-09-15T16:53:58.239Z,5.20
2022-09-15T16:56:25.229Z,4.20
2022-09-15T16:58:58.788Z,3.80
2022-09-15T17:01:26.862Z,4.60
2022-09-15T17:03:53.732Z,5.30
2022-09-15T17:06:22.119Z,6.40
2022-09-15T17:08:49.789Z,3.80
2022-09-15T17:11:20.226Z,6.00
2022-09-15T17:13:47.548Z,3.90
2022-09-15T17:16:22.111Z,4.90
2022-09-15T17:18:49.239Z,4.40
2022-09-15T17:21:18.320Z,5.10
2022-09-15T17:23:48.229Z,5.00
2022-09-15T17:26:21.113Z,2.60
2022-09-15T17:28:48.012Z,6.50
2022-09-15T17:31:21.615Z,2.20
2022-09-15T17:33:50.480Z,2.90
2022-09-15T17:36:18.311Z,4.40
2022-09-15T17:38:45.634Z,4.80
2022-09-15T17:41:19.100Z,4.10
2022-09-15T17:43:47.707Z,2.90
2022-09-15T17:46:15.114Z,4.00
2022-09-15T17:48:41.979Z,3.90
2022-09-15T17:51:17.431Z,4.50
2022-09-15T17:53:45.969Z,3.40
2022-09-15T17:56:12.891Z,5.50
2022-09-15T17:58:40.117Z,5.40
2022-09-15T18:01:06.953Z,4.50
2022-09-15T18:03:37.177Z,1.70
2022-09-15T18:06:08.222Z,4.20
2022-09-15T18:08:36.451Z,2.40
2022-09-15T18:11:06.106Z,2.50
2022-09-15T18:13:33.614Z,2.50
2022-09-15T18:16:07.754Z,6.20
2022-09-15T18:18:34.909Z,2.60
2022-09-15T18:21:06.504Z,1.80
2022-09-15T18:23:33.247Z,4.60
2022-09-15T18:26:00.071Z,2.40
2022-09-15T18:28:26.886Z,4.70
2022-09-15T18:30:53.625Z,5.30
2022-09-15T18:33:27.157Z,3.60
2022-09-15T18:35:58.946Z,7.30
2022-09-15T18:38:27.236Z,6.50
2022-09-15T18:40:57.426Z,2.50
2022-09-15T18:43:28.504Z,2.30
2022-09-15T18:46:00.499Z,2.50
2022-09-15T18:48:29.289Z,4.10
2022-09-15T18:50:56.343Z,5.00
2022-09-15T18:53:23.510Z,3.50
2022-09-15T18:55:50.495Z,5.00
2022-09-15T18:58:19.264Z,2.20
2022-09-15T19:00:46.746Z,1.70
2022-09-15T19:03:14.297Z,2.90
2022-09-15T19:05:42.040Z,2.80
2022-09-15T19:08:09.352Z,2.40
2022-09-15T19:10:40.003Z,4.10
2022-09-15T19:13:06.798Z,3.90
2022-09-15T19:15:34.707Z,2.80
2022-09-15T19:18:02.093Z,3.10
2022-09-15T19:20:30.100Z,5.40
2022-09-15T19:22:58.422Z,2.00
2022-09-15T19:25:25.574Z,3.00
2022-09-15T19:27:52.572Z,2.90
2022-09-15T19:30:20.524Z,2.20
2022-09-15T19:32:47.313Z,4.50
2022-09-15T19:35:14.599Z,7.30
2022-09-15T19:37:43.010Z,1.70
2022-09-15T19:40:14.624Z,3.40
2022-09-15T19:42:43.984Z,2.20
2022-09-15T19:45:13.006Z,4.20
2022-09-15T19:47:40.585Z,3.20
2022-09-15T19:50:13.462Z,3.00
2022-09-15T19:52:40.495Z,3.30
2022-09-15T19:55:09.902Z,3.40
2022-09-15T19:57:41.463Z,3.40
2022-09-15T20:00:12.609Z,6.50
2022-09-15T20:02:39.929Z,4.00
2022-09-15T20:05:08.815Z,4.10
2022-09-15T20:07:35.959Z,2.80
2022-09-15T20:10:03.939Z,2.00
2022-09-15T20:12:31.253Z,2.30
2022-09-15T20:14:58.152Z,3.30
2022-09-15T20:17:25.036Z,2.50
2022-09-15T20:19:51.917Z,2.20
2022-09-15T20:22:18.765Z,5.70
2022-09-15T20:24:45.725Z,3.30
2022-09-15T20:27:12.529Z,4.50
2022-09-15T20:29:39.389Z,2.20
2022-09-15T20:32:06.307Z,5.20
2022-09-15T20:34:33.066Z,3.30
2022-09-15T20:36:59.754Z,3.70
2022-09-15T20:39:26.555Z,2.40
2022-09-15T20:41:53.281Z,3.70
2022-09-15T20:44:20.061Z,4.30
2022-09-15T20:46:46.864Z,2.10
2022-09-15T20:49:13.575Z,2.30
2022-09-15T20:51:40.419Z,3.20
2022-09-15T20:54:07.804Z,2.70
2022-09-15T20:56:36.047Z,3.40
2022-09-15T20:59:04.608Z,3.80
2022-09-15T21:01:37.766Z,1.40
2022-09-15T21:04:10.025Z,2.80
2022-09-15T21:06:37.757Z,4.90
2022-09-15T21:09:06.588Z,1.70
2022-09-15T21:11:34.239Z,4.00
2022-09-15T21:14:01.751Z,3.40
2022-09-15T21:16:29.924Z,5.00
2022-09-15T21:18:58.861Z,4.70
2022-09-15T21:21:31.212Z,2.30
2022-09-15T21:24:03.933Z,2.80
2022-09-15T21:27:01.635Z,3.30
2022-09-15T21:29:30.083Z,3.30
2022-09-15T21:31:57.831Z,2.20
2022-09-15T21:34:24.696Z,4.10
2022-09-15T21:36:53.638Z,2.80
2022-09-15T21:39:21.484Z,3.30
2022-09-15T21:41:48.333Z,6.60
2022-09-15T21:44:15.711Z,4.00
2022-09-15T21:46:42.601Z,4.50
2022-09-15T21:49:09.342Z,3.60
2022-09-15T21:51:36.235Z,3.50
2022-09-15T21:54:03.029Z,4.00
2022-09-15T21:56:30.465Z,4.30
2022-09-15T21:58:57.821Z,2.30
2022-09-15T22:01:30.847Z,4.40
2022-09-15T22:04:01.500Z,3.50
2022-09-15T22:06:32.429Z,2.30
2022-09-15T22:09:07.127Z,3.90
2022-09-15T22:11:34.655Z,3.50
2022-09-15T22:14:08.186Z,3.20
2022-09-15T22:16:40.393Z,4.00
2022-09-15T22:19:10.907Z,4.80
2022-09-15T22:21:42.114Z,5.20
2022-09-15T22:24:14.185Z,2.10
2022-09-15T22:26:43.665Z,2.90
2022-09-15T22:29:10.966Z,5.60
2022-09-15T22:31:38.551Z,2.50
2022-09-15T22:34:05.528Z,4.40
2022-09-15T22:36:33.322Z,3.00
2022-09-15T22:39:05.647Z,3.50
2022-09-15T22:41:40.314Z,4.80
2022-09-15T22:44:18.005Z,3.00
2022-09-15T22:46:45.197Z,3.00
2022-09-15T22:49:11.977Z,4.10
2022-09-15T22:51:38.720Z,3.70
2022-09-15T22:54:05.724Z,2.90
2022-09-15T22:56:33.294Z,4.90
2022-09-15T22:59:00.887Z,3.70
2022-09-15T23:01:30.987Z,3.30
2022-09-15T23:04:02.698Z,2.10
2022-09-15T23:06:34.360Z,1.90
2022-09-15T23:09:06.901Z,4.50
2022-09-15T23:11:39.948Z,4.00
2022-09-15T23:14:18.629Z,4.50
2022-09-15T23:16:45.571Z,3.10
2022-09-15T23:19:13.908Z,2.30
2022-09-15T23:21:58.497Z,3.30
2022-09-15T23:24:31.820Z,3.00
2022-09-15T23:26:59.552Z,2.30
2022-09-15T23:29:26.425Z,3.50
2022-09-15T23:31:53.685Z,2.40
2022-09-15T23:34:21.284Z,4.20
2022-09-15T23:36:49.403Z,3.80
2022-09-15T23:39:18.994Z,7.20
2022-09-15T23:41:45.657Z,4.60
2022-09-15T23:44:12.407Z,1.30
2022-09-15T23:46:39.232Z,3.00
2022-09-15T23:49:06.273Z,3.10
2022-09-15T23:51:33.172Z,2.60
2022-09-15T23:54:01.525Z,6.10
2022-09-15T23:56:28.605Z,4.20
2022-09-15T23:58:55.814Z,4.80
